Time,TemperatureF,DewpointF,PressureIn,WindDirection,WindDirectionDegrees,WindSpeedMPH,WindSpeedGustMPH,Humidity,HourlyPrecipIn,Conditions,Clouds,dailyrainin,SoftwareType,DateUTC
2013-08-26 00:02:00,46.0,45.0,-100.00,East,90,3.0,5.0,95,-99.99,,,-99.99,,2013-08-26 08:02:00,
2013-08-26 00:11:00,46.0,45.0,-100.00,East,90,3.0,5.0,95,-99.99,,,-99.99,,2013-08-26 08:11:00,
2013-08-26 00:22:00,45.0,44.0,-100.00,East,95,2.0,4.0,96,-99.99,,,-99.99,,2013-08-26 08:22:00,
2013-08-26 00:31:00,45.0,44.0,-100.00,East,95,2.0,4.0,96,-99.99,,,-99.99,,2013-08-26 08:31:00,
2013-08-26 00:42:00,45.0,44.0,-100.00,East,95,2.0,4.0,96,-99.99,,,-99.99,,2013-08-26 08:42:00,
2013-08-26 00:52:00,43.0,42.0,-100.00,East,90,3.0,4.0,96,-99.99,,,-99.99,,2013-08-26 08:52:00,
2013-08-26 01:02:00,43.0,42.0,-100.00,East,90,3.0,4.0,96,-99.99,,,-99.99,,2013-08-26 09:02:00,
2013-08-26 01:11:00,43.0,42.0,-100.00,East,90,3.0,4.0,96,-99.99,,,-99.99,,2013-08-26 09:11:00,
2013-08-26 01:21:00,43.0,42.0,-100.00,East,90,3.0,4.0,97,-99.99,,,-99.99,,2013-08-26 09:21:00,
2013-08-26 01:33:00,43.0,42.0,-100.00,East,90,3.0,4.0,97,-99.99,,,-99.99,,2013-08-26 09:33:00,
2013-08-26 01:43:00,43.0,42.0,-100.00,East,90,3.0,4.0,97,-99.99,,,-99.99,,2013-08-26 09:43:00,
2013-08-26 01:53:00,42.0,41.0,-100.00,East,100,4.0,6.0,97,-99.99,,,-99.99,,2013-08-26 09:53:00,
2013-08-26 02:03:00,42.0,41.0,-100.00,East,100,4.0,6.0,97,-99.99,,,-99.99,,2013-08-26 10:03:00,
2013-08-26 02:12:00,42.0,41.0,-100.00,East,100,4.0,6.0,97,-99.99,,,-99.99,,2013-08-26 10:12:00,
2013-08-26 02:23:00,41.0,41.0,-100.00,East,90,2.0,4.0,97,-99.99,,,-99.99,,2013-08-26 10:23:00,
2013-08-26 02:32:00,41.0,41.0,-100.00,East,90,2.0,4.0,97,-99.99,,,-99.99,,2013-08-26 10:32:00,
2013-08-26 02:42:00,41.0,41.0,-100.00,East,90,2.0,4.0,97,-99.99,,,-99.99,,2013-08-26 10:42:00,
2013-08-26 02:52:00,41.0,40.0,-100.00,East,95,3.0,4.0,98,-99.99,,,-99.99,,2013-08-26 10:52:00,
2013-08-26 03:02:00,41.0,40.0,-100.00,East,95,3.0,4.0,98,-99.99,,,-99.99,,2013-08-26 11:02:00,
2013-08-26 03:12:00,41.0,40.0,-100.00,East,95,3.0,4.0,98,-99.99,,,-99.99,,2013-08-26 11:12:00,
2013-08-26 03:22:00,40.0,39.0,-100.00,East,95,3.0,4.0,98,-99.99,,,-99.99,,2013-08-26 11:22:00,
2013-08-26 03:33:00,40.0,39.0,-100.00,East,95,3.0,4.0,98,-99.99,,,-99.99,,2013-08-26 11:33:00,
2013-08-26 03:42:00,40.0,39.0,-100.00,East,95,3.0,4.0,98,-99.99,,,-99.99,,2013-08-26 11:42:00,
2013-08-26 03:52:00,39.0,39.0,-100.00,East,95,3.0,5.0,98,-99.99,,,-99.99,,2013-08-26 11:52:00,
2013-08-26 04:01:00,39.0,39.0,-100.00,East,95,3.0,5.0,98,-99.99,,,-99.99,,2013-08-26 12:01:00,
2013-08-26 04:12:00,39.0,39.0,-100.00,East,95,3.0,5.0,98,-99.99,,,-99.99,,2013-08-26 12:12:00,
2013-08-26 04:21:00,39.0,39.0,-100.00,East,95,4.0,5.0,98,-99.99,,,-99.99,,2013-08-26 12:21:00,
2013-08-26 04:32:00,39.0,39.0,-100.00,East,95,4.0,5.0,98,-99.99,,,-99.99,,2013-08-26 12:32:00,
2013-08-26 04:42:00,39.0,39.0,-100.00,East,95,4.0,5.0,98,-99.99,,,-99.99,,2013-08-26 12:42:00,
2013-08-26 04:52:00,39.0,38.0,-100.00,East,85,4.0,6.0,98,-99.99,,,-99.99,,2013-08-26 12:52:00,
2013-08-26 05:02:00,39.0,38.0,-100.00,East,85,4.0,6.0,98,-99.99,,,-99.99,,2013-08-26 13:02:00,
2013-08-26 05:11:00,39.0,38.0,-100.00,East,85,4.0,6.0,98,-99.99,,,-99.99,,2013-08-26 13:11:00,
2013-08-26 05:21:00,38.0,38.0,-100.00,East,85,3.0,4.0,98,-99.99,,,-99.99,,2013-08-26 13:21:00,
2013-08-26 05:32:00,38.0,38.0,-100.00,East,85,3.0,4.0,98,-99.99,,,-99.99,,2013-08-26 13:32:00,
2013-08-26 05:42:00,38.0,38.0,-100.00,East,85,3.0,4.0,98,-99.99,,,-99.99,,2013-08-26 13:42:00,
2013-08-26 05:52:00,38.0,37.0,-100.00,East,90,4.0,6.0,99,-99.99,,,-99.99,,2013-08-26 13:52:00,
2013-08-26 06:02:00,38.0,37.0,-100.00,East,90,4.0,6.0,99,-99.99,,,-99.99,,2013-08-26 14:02:00,
2013-08-26 06:11:00,38.0,37.0,-100.00,East,90,4.0,6.0,99,-99.99,,,-99.99,,2013-08-26 14:11:00,
2013-08-26 06:22:00,37.0,37.0,-100.00,East,95,4.0,6.0,99,-99.99,,,-99.99,,2013-08-26 14:22:00,
2013-08-26 06:32:00,37.0,37.0,-100.00,East,95,4.0,6.0,99,-99.99,,,-99.99,,2013-08-26 14:32:00,
2013-08-26 06:42:00,37.0,37.0,-100.00,East,95,4.0,6.0,99,-99.99,,,-99.99,,2013-08-26 14:42:00,
2013-08-26 06:52:00,37.0,36.0,-100.00,East,90,3.0,6.0,99,-99.99,,,-99.99,,2013-08-26 14:52:00,
2013-08-26 07:01:00,37.0,36.0,-100.00,East,90,3.0,6.0,99,-99.99,,,-99.99,,2013-08-26 15:01:00,
2013-08-26 07:12:00,37.0,36.0,-100.00,East,90,3.0,6.0,99,-99.99,,,-99.99,,2013-08-26 15:12:00,
2013-08-26 07:22:00,36.0,36.0,-100.00,East,90,4.0,6.0,99,-99.99,,,-99.99,,2013-08-26 15:22:00,
2013-08-26 07:35:00,36.0,36.0,-100.00,East,90,4.0,6.0,99,-99.99,,,-99.99,,2013-08-26 15:35:00,
2013-08-26 07:47:00,36.0,36.0,-100.00,East,90,4.0,6.0,99,-99.99,,,-99.99,,2013-08-26 15:47:00,
2013-08-26 08:17:00,36.0,35.0,-100.00,East,90,4.0,6.0,99,-99.99,,,-99.99,,2013-08-26 16:17:00,
2013-08-26 08:29:00,36.0,36.0,-100.00,East,90,4.0,6.0,99,-99.99,,,-99.99,,2013-08-26 16:29:00,
2013-08-26 08:36:00,36.0,36.0,-100.00,East,90,4.0,6.0,99,-99.99,,,-99.99,,2013-08-26 16:36:00,
2013-08-26 08:59:00,39.0,38.0,-100.00,East,95,4.0,6.0,99,-99.99,,,-99.99,,2013-08-26 16:59:00,
2013-08-26 09:06:00,39.0,38.0,-100.00,East,95,4.0,6.0,99,-99.99,,,-99.99,,2013-08-26 17:06:00,
2013-08-26 09:12:00,39.0,38.0,-100.00,East,95,4.0,6.0,99,-99.99,,,-99.99,,2013-08-26 17:12:00,
2013-08-26 09:24:00,43.0,43.0,-100.00,East,80,3.0,4.0,99,-99.99,,,-99.99,,2013-08-26 17:24:00,
2013-08-26 09:36:00,43.0,43.0,-100.00,East,80,3.0,4.0,99,-99.99,,,-99.99,,2013-08-26 17:36:00,
2013-08-26 09:43:00,43.0,43.0,-100.00,East,80,3.0,4.0,99,-99.99,,,-99.99,,2013-08-26 17:43:00,
2013-08-26 09:53:00,45.0,44.0,-100.00,East,95,2.0,3.0,98,-99.99,,,-99.99,,2013-08-26 17:53:00,
2013-08-26 10:01:00,45.0,44.0,-100.00,East,95,2.0,3.0,98,-99.99,,,-99.99,,2013-08-26 18:01:00,
2013-08-26 10:12:00,45.0,44.0,-100.00,East,95,2.0,3.0,98,-99.99,,,-99.99,,2013-08-26 18:12:00,
2013-08-26 10:21:00,49.0,49.0,-100.00,ENE,70,1.0,2.0,97,-99.99,,,-99.99,,2013-08-26 18:21:00,
2013-08-26 10:31:00,49.0,49.0,-100.00,ENE,70,1.0,2.0,97,-99.99,,,-99.99,,2013-08-26 18:31:00,
2013-08-26 10:42:00,49.0,49.0,-100.00,ENE,70,1.0,2.0,97,-99.99,,,-99.99,,2013-08-26 18:42:00,
2013-08-26 10:52:00,54.0,48.0,-100.00,WNW,295,3.0,4.0,82,-99.99,,,-99.99,,2013-08-26 18:52:00,
2013-08-26 11:01:00,54.0,48.0,-100.00,WNW,295,3.0,4.0,82,-99.99,,,-99.99,,2013-08-26 19:01:00,
2013-08-26 11:11:00,54.0,48.0,-100.00,WNW,295,3.0,4.0,82,-99.99,,,-99.99,,2013-08-26 19:11:00,
2013-08-26 11:22:00,54.0,47.0,-100.00,WSW,245,3.0,4.0,75,-99.99,,,-99.99,,2013-08-26 19:22:00,
2013-08-26 11:32:00,54.0,47.0,-100.00,WSW,245,3.0,4.0,75,-99.99,,,-99.99,,2013-08-26 19:32:00,
2013-08-26 11:42:00,54.0,47.0,-100.00,WSW,245,3.0,4.0,75,-99.99,,,-99.99,,2013-08-26 19:42:00,
2013-08-26 11:52:00,54.0,46.0,-100.00,WNW,290,3.0,7.0,76,-99.99,,,-99.99,,2013-08-26 19:52:00,
2013-08-26 12:02:00,54.0,46.0,-100.00,WNW,290,3.0,7.0,76,-99.99,,,-99.99,,2013-08-26 20:02:00,
2013-08-26 12:11:00,54.0,46.0,-100.00,WNW,290,3.0,7.0,76,-99.99,,,-99.99,,2013-08-26 20:11:00,
2013-08-26 12:21:00,54.0,47.0,-100.00,WNW,295,3.0,7.0,78,-99.99,,,-99.99,,2013-08-26 20:21:00,
2013-08-26 12:32:00,54.0,47.0,-100.00,WNW,295,3.0,7.0,78,-99.99,,,-99.99,,2013-08-26 20:32:00,
2013-08-26 12:42:00,54.0,47.0,-100.00,WNW,295,3.0,7.0,78,-99.99,,,-99.99,,2013-08-26 20:42:00,
2013-08-26 12:52:00,55.0,48.0,-100.00,WNW,290,3.0,7.0,77,-99.99,,,-99.99,,2013-08-26 20:52:00,
2013-08-26 13:01:00,55.0,48.0,-100.00,WNW,290,3.0,7.0,77,-99.99,,,-99.99,,2013-08-26 21:01:00,
2013-08-26 13:11:00,55.0,48.0,-100.00,WNW,290,3.0,7.0,77,-99.99,,,-99.99,,2013-08-26 21:11:00,
2013-08-26 13:22:00,56.0,49.0,-100.00,West,280,2.0,5.0,77,-99.99,,,-99.99,,2013-08-26 21:22:00,
2013-08-26 13:35:00,56.0,49.0,-100.00,West,280,2.0,5.0,77,-99.99,,,-99.99,,2013-08-26 21:35:00,
2013-08-26 13:44:00,56.0,49.0,-100.00,West,280,2.0,5.0,77,-99.99,,,-99.99,,2013-08-26 21:44:00,
2013-08-26 13:54:00,57.0,48.0,-100.00,NW,315,2.0,7.0,74,-99.99,,,-99.99,,2013-08-26 21:54:00,
2013-08-26 14:07:00,57.0,48.0,-100.00,NW,315,2.0,7.0,74,-99.99,,,-99.99,,2013-08-26 22:07:00,
2013-08-26 14:16:00,57.0,48.0,-100.00,NW,315,2.0,7.0,74,-99.99,,,-99.99,,2013-08-26 22:16:00,
2013-08-26 14:26:00,58.0,49.0,-100.00,WNW,290,3.0,6.0,73,-99.99,,,-99.99,,2013-08-26 22:26:00,
2013-08-26 14:34:00,58.0,49.0,-100.00,WNW,290,3.0,6.0,73,-99.99,,,-99.99,,2013-08-26 22:34:00,
2013-08-26 14:42:00,58.0,49.0,-100.00,WNW,290,3.0,6.0,73,-99.99,,,-99.99,,2013-08-26 22:42:00,
2013-08-26 14:53:00,58.0,49.0,-100.00,WNW,290,3.0,6.0,72,-99.99,,,-99.99,,2013-08-26 22:53:00,
2013-08-26 15:03:00,58.0,49.0,-100.00,WNW,290,3.0,6.0,72,-99.99,,,-99.99,,2013-08-26 23:03:00,
2013-08-26 15:12:00,58.0,49.0,-100.00,WNW,290,3.0,6.0,72,-99.99,,,-99.99,,2013-08-26 23:12:00,
2013-08-26 15:21:00,58.0,49.0,-100.00,NW,310,4.0,11.0,71,-99.99,,,-99.99,,2013-08-26 23:21:00,
2013-08-26 15:34:00,58.0,49.0,-100.00,NW,310,4.0,11.0,71,-99.99,,,-99.99,,2013-08-26 23:34:00,
2013-08-26 15:42:00,58.0,49.0,-100.00,NW,310,4.0,11.0,71,-99.99,,,-99.99,,2013-08-26 23:42:00,
2013-08-26 15:52:00,57.0,49.0,-100.00,NW,310,3.0,7.0,75,-99.99,,,-99.99,,2013-08-26 23:52:00,
2013-08-26 16:01:00,57.0,49.0,-100.00,NW,310,3.0,7.0,75,-99.99,,,-99.99,,2013-08-27 00:01:00,
2013-08-26 16:11:00,57.0,49.0,-100.00,NW,310,3.0,7.0,75,-99.99,,,-99.99,,2013-08-27 00:11:00,
2013-08-26 16:21:00,57.0,48.0,-100.00,WNW,290,2.0,7.0,71,-99.99,,,-99.99,,2013-08-27 00:21:00,
2013-08-26 16:32:00,57.0,48.0,-100.00,WNW,290,2.0,7.0,71,-99.99,,,-99.99,,2013-08-27 00:32:00,
2013-08-26 16:42:00,57.0,48.0,-100.00,WNW,290,2.0,7.0,71,-99.99,,,-99.99,,2013-08-27 00:42:00,
2013-08-26 16:52:00,60.0,44.0,-100.00,NW,310,4.0,7.0,57,-99.99,,,-99.99,,2013-08-27 00:52:00,
2013-08-26 17:01:00,60.0,44.0,-100.00,NW,310,4.0,7.0,57,-99.99,,,-99.99,,2013-08-27 01:01:00,
2013-08-26 17:12:00,60.0,44.0,-100.00,NW,310,4.0,7.0,57,-99.99,,,-99.99,,2013-08-27 01:12:00,
2013-08-26 17:21:00,58.0,47.0,-100.00,WNW,290,5.0,7.0,67,-99.99,,,-99.99,,2013-08-27 01:21:00,
2013-08-26 17:32:00,58.0,47.0,-100.00,WNW,290,5.0,7.0,67,-99.99,,,-99.99,,2013-08-27 01:32:00,
2013-08-26 17:42:00,58.0,47.0,-100.00,WNW,290,5.0,7.0,67,-99.99,,,-99.99,,2013-08-27 01:42:00,
2013-08-26 17:52:00,57.0,49.0,-100.00,WNW,285,4.0,7.0,75,-99.99,,,-99.99,,2013-08-27 01:52:00,
2013-08-26 18:02:00,57.0,49.0,-100.00,WNW,285,4.0,7.0,75,-99.99,,,-99.99,,2013-08-27 02:02:00,
2013-08-26 18:12:00,57.0,49.0,-100.00,WNW,285,4.0,7.0,75,-99.99,,,-99.99,,2013-08-27 02:12:00,
2013-08-26 18:21:00,58.0,50.0,-100.00,NW,305,2.0,6.0,75,-99.99,,,-99.99,,2013-08-27 02:21:00,
2013-08-26 18:32:00,58.0,50.0,-100.00,NW,305,2.0,6.0,75,-99.99,,,-99.99,,2013-08-27 02:32:00,
2013-08-26 18:42:00,58.0,50.0,-100.00,NW,305,2.0,6.0,75,-99.99,,,-99.99,,2013-08-27 02:42:00,
2013-08-26 18:52:00,58.0,51.0,-100.00,West,260,2.0,6.0,77,-99.99,,,-99.99,,2013-08-27 02:52:00,
2013-08-26 19:02:00,58.0,51.0,-100.00,West,260,2.0,6.0,77,-99.99,,,-99.99,,2013-08-27 03:02:00,
2013-08-26 19:12:00,58.0,51.0,-100.00,West,260,2.0,6.0,77,-99.99,,,-99.99,,2013-08-27 03:12:00,
2013-08-26 19:22:00,58.0,51.0,-100.00,WSW,245,2.0,5.0,76,-99.99,,,-99.99,,2013-08-27 03:22:00,
2013-08-26 19:36:00,58.0,51.0,-100.00,WSW,245,2.0,5.0,76,-99.99,,,-99.99,,2013-08-27 03:36:00,
2013-08-26 19:44:00,58.0,51.0,-100.00,WSW,245,2.0,5.0,76,-99.99,,,-99.99,,2013-08-27 03:44:00,
2013-08-26 19:58:00,55.0,50.0,-100.00,SW,230,2.0,6.0,83,-99.99,,,-99.99,,2013-08-27 03:58:00,
2013-08-26 20:08:00,55.0,50.0,-100.00,SW,230,2.0,6.0,83,-99.99,,,-99.99,,2013-08-27 04:08:00,
2013-08-26 20:18:00,55.0,50.0,-100.00,SW,230,2.0,6.0,83,-99.99,,,-99.99,,2013-08-27 04:18:00,
2013-08-26 20:29:00,54.0,51.0,-100.00,WSW,255,1.0,2.0,88,-99.99,,,-99.99,,2013-08-27 04:29:00,
2013-08-26 20:38:00,54.0,51.0,-100.00,WSW,255,1.0,2.0,88,-99.99,,,-99.99,,2013-08-27 04:38:00,
2013-08-26 20:47:00,54.0,51.0,-100.00,WSW,255,1.0,2.0,88,-99.99,,,-99.99,,2013-08-27 04:47:00,
2013-08-26 20:54:00,53.0,50.0,-100.00,SE,125,1.0,1.0,90,-99.99,,,-99.99,,2013-08-27 04:54:00,
2013-08-26 21:05:00,53.0,50.0,-100.00,SE,125,1.0,1.0,90,-99.99,,,-99.99,,2013-08-27 05:05:00,
2013-08-26 21:13:00,53.0,50.0,-100.00,SE,125,1.0,1.0,90,-99.99,,,-99.99,,2013-08-27 05:13:00,
2013-08-26 21:23:00,51.0,49.0,-100.00,East,100,1.0,1.0,92,-99.99,,,-99.99,,2013-08-27 05:23:00,
2013-08-26 21:34:00,51.0,49.0,-100.00,East,100,1.0,1.0,92,-99.99,,,-99.99,,2013-08-27 05:34:00,
2013-08-26 21:43:00,51.0,49.0,-100.00,East,100,1.0,1.0,92,-99.99,,,-99.99,,2013-08-27 05:43:00,
2013-08-26 21:52:00,49.0,47.0,-100.00,East,95,2.0,3.0,94,-99.99,,,-99.99,,2013-08-27 05:52:00,
2013-08-26 22:02:00,49.0,47.0,-100.00,East,95,2.0,3.0,94,-99.99,,,-99.99,,2013-08-27 06:02:00,
2013-08-26 22:12:00,49.0,47.0,-100.00,East,95,2.0,3.0,94,-99.99,,,-99.99,,2013-08-27 06:12:00,